createdAt,value
2023-05-10T00:01:14.681Z,100885.84
2023-05-10T00:03:41.496Z,100890.44
2023-05-10T00:06:08.301Z,100879.91
2023-05-10T00:08:35.000Z,100878.34
2023-05-10T00:11:03.090Z,100881.28
2023-05-10T00:13:29.761Z,100880.56
2023-05-10T00:15:56.391Z,100874.28
2023-05-10T00:18:23.041Z,100880.06
2023-05-10T00:20:49.787Z,100867.50
2023-05-10T00:23:16.486Z,100872.06
2023-05-10T00:25:43.363Z,100864.28
2023-05-10T00:28:11.292Z,100868.84
2023-05-10T00:30:37.981Z,100855.47
2023-05-10T00:33:04.649Z,100853.75
2023-05-10T00:35:31.340Z,100855.78
2023-05-10T00:37:57.983Z,100846.09
2023-05-10T00:40:24.882Z,100856.13
2023-05-10T00:42:51.592Z,100854.56
2023-05-10T00:45:20.221Z,100850.19
2023-05-10T00:47:46.937Z,100852.03
2023-05-10T00:50:14.583Z,100850.34
2023-05-10T00:52:42.309Z,100845.06
2023-05-10T00:55:12.183Z,100842.53
2023-05-10T00:57:39.071Z,100841.69
2023-05-10T01:00:07.272Z,100838.28
2023-05-10T01:02:35.971Z,100833.03
2023-05-10T01:05:03.733Z,100835.91
2023-05-10T01:07:30.551Z,100828.22
2023-05-10T01:09:57.563Z,100825.50
2023-05-10T01:12:24.549Z,100834.66
2023-05-10T01:14:51.370Z,100833.00
2023-05-10T01:17:18.245Z,100829.44
2023-05-10T01:19:46.436Z,100826.88
2023-05-10T01:22:35.451Z,100826.16
2023-05-10T01:25:28.440Z,100831.94
2023-05-10T01:28:26.664Z,100832.28
2023-05-10T01:31:09.779Z,100826.34
2023-05-10T01:33:44.104Z,100830.94
2023-05-10T01:36:20.221Z,100828.38
2023-05-10T01:38:51.553Z,100819.56
2023-05-10T01:41:20.994Z,100821.59
2023-05-10T01:43:56.668Z,100827.16
2023-05-10T01:46:29.728Z,100816.50
2023-05-10T01:49:01.372Z,100820.38
2023-05-10T01:51:34.484Z,100812.72
2023-05-10T01:54:03.413Z,100810.22
2023-05-10T01:56:34.044Z,100812.41
2023-05-10T01:59:06.759Z,100810.88
2023-05-10T02:01:35.259Z,100804.56
2023-05-10T02:04:03.875Z,100816.63
2023-05-10T02:06:32.068Z,100811.53
2023-05-10T02:08:58.748Z,100811.69
2023-05-10T02:11:26.421Z,100804.91
2023-05-10T02:13:54.324Z,100813.22
2023-05-10T02:16:24.613Z,100803.53
2023-05-10T02:18:53.112Z,100807.41
2023-05-10T02:21:22.557Z,100810.47
2023-05-10T02:23:52.931Z,100802.50
2023-05-10T02:26:22.120Z,100812.69
2023-05-10T02:28:50.252Z,100810.31
2023-05-10T02:31:17.987Z,100798.91
2023-05-10T02:33:46.753Z,100797.38
2023-05-10T02:36:16.061Z,100798.56
2023-05-10T02:38:45.554Z,100794.31
2023-05-10T02:41:13.019Z,100808.22
2023-05-10T02:43:41.450Z,100801.22
2023-05-10T02:46:08.180Z,100807.00
2023-05-10T02:48:35.000Z,100796.28
2023-05-10T02:51:06.218Z,100801.72
2023-05-10T02:53:36.453Z,100806.47
2023-05-10T02:56:11.783Z,100800.34
2023-05-10T02:58:38.432Z,100796.97
2023-05-10T03:01:05.176Z,100795.59
2023-05-10T03:03:31.764Z,100804.88
2023-05-10T03:05:58.575Z,100799.09
2023-05-10T03:08:25.662Z,100793.88
2023-05-10T03:11:05.754Z,100797.72
2023-05-10T03:13:44.052Z,100800.63
2023-05-10T03:16:16.241Z,100798.06
2023-05-10T03:18:48.803Z,100792.97
2023-05-10T03:21:18.925Z,100797.69
2023-05-10T03:23:52.010Z,100788.88
2023-05-10T03:26:24.680Z,100791.59
2023-05-10T03:28:54.447Z,100788.03
2023-05-10T03:31:21.838Z,100791.75
2023-05-10T03:33:48.722Z,100784.63
2023-05-10T03:36:15.383Z,100788.38
2023-05-10T03:38:41.979Z,100788.19
2023-05-10T03:41:08.660Z,100782.75
2023-05-10T03:43:35.444Z,100789.91
2023-05-10T03:46:04.123Z,100779.06
2023-05-10T03:48:31.047Z,100785.31
2023-05-10T03:50:57.596Z,100778.06
2023-05-10T03:53:24.383Z,100780.56
2023-05-10T03:55:51.169Z,100785.84
2023-05-10T03:58:17.817Z,100784.84
2023-05-10T04:00:44.526Z,100792.31
2023-05-10T04:03:13.189Z,100786.31
2023-05-10T04:05:40.022Z,100785.47
2023-05-10T04:08:07.010Z,100787.03
2023-05-10T04:10:33.772Z,100769.66
2023-05-10T04:13:00.536Z,100763.22
2023-05-10T04:15:27.197Z,100761.63
2023-05-10T04:17:53.846Z,100750.25
2023-05-10T04:20:21.870Z,100750.53
2023-05-10T04:22:48.501Z,100747.03
2023-05-10T04:25:15.145Z,100748.38
2023-05-10T04:27:41.822Z,100743.66
2023-05-10T04:30:09.488Z,100744.81
2023-05-10T04:32:36.071Z,100743.81
2023-05-10T04:35:02.710Z,100727.00
2023-05-10T04:37:30.845Z,100736.09
2023-05-10T04:39:57.426Z,100731.41
2023-05-10T04:42:23.976Z,100724.66
2023-05-10T04:44:50.646Z,100732.78
2023-05-10T04:47:17.261Z,100732.22
2023-05-10T04:49:43.910Z,100724.81
2023-05-10T04:52:10.579Z,100720.25
2023-05-10T04:54:38.601Z,100722.81
2023-05-10T04:57:05.210Z,100724.81
2023-05-10T04:59:31.816Z,100724.38
2023-05-10T05:01:58.525Z,100726.03
2023-05-10T05:04:25.243Z,100723.47
2023-05-10T05:06:53.770Z,100725.72
2023-05-10T05:09:20.684Z,100725.81
2023-05-10T05:11:49.337Z,100730.09
2023-05-10T05:14:16.000Z,100731.41
2023-05-10T05:16:42.748Z,100734.66
2023-05-10T05:19:09.413Z,100729.59
2023-05-10T05:21:36.048Z,100728.78
2023-05-10T05:24:02.809Z,100728.81
2023-05-10T05:26:29.535Z,100728.34
2023-05-10T05:28:57.585Z,100727.09
2023-05-10T05:31:24.254Z,100731.34
2023-05-10T05:33:50.925Z,100728.38
2023-05-10T05:36:17.544Z,100733.84
2023-05-10T05:38:44.120Z,100726.25
2023-05-10T05:41:10.768Z,100726.03
2023-05-10T05:43:38.430Z,100734.47
2023-05-10T05:46:06.736Z,100726.66
2023-05-10T05:48:33.619Z,100727.94
2023-05-10T05:51:00.278Z,100735.72
2023-05-10T05:53:27.024Z,100732.97
2023-05-10T05:55:54.828Z,100727.91
2023-05-10T05:58:21.712Z,100726.41
2023-05-10T06:00:48.636Z,100734.63
2023-05-10T06:03:16.836Z,100732.97
2023-05-10T06:05:43.620Z,100735.91
2023-05-10T06:08:10.397Z,100741.84
2023-05-10T06:10:37.262Z,100740.38
2023-05-10T06:13:04.251Z,100736.34
2023-05-10T06:15:30.960Z,100727.94
2023-05-10T06:17:57.609Z,100735.31
2023-05-10T06:20:26.213Z,100725.41
2023-05-10T06:22:52.775Z,100733.00
2023-05-10T06:25:19.762Z,100732.34
2023-05-10T06:27:49.860Z,100737.66
2023-05-10T06:30:18.595Z,100738.91
2023-05-10T06:32:45.248Z,100733.19
2023-05-10T06:35:12.183Z,100728.38
2023-05-10T06:37:40.385Z,100731.72
2023-05-10T06:40:08.210Z,100736.59
2023-05-10T06:42:34.895Z,100733.22
2023-05-10T06:45:01.499Z,100734.72
2023-05-10T06:47:28.335Z,100725.84
2023-05-10T06:49:55.015Z,100727.31
2023-05-10T06:52:21.664Z,100735.56
2023-05-10T06:54:49.670Z,100736.81
2023-05-10T06:57:27.578Z,100729.63
2023-05-10T06:59:58.757Z,100739.34
2023-05-10T07:02:25.390Z,100726.25
2023-05-10T07:04:52.096Z,100722.44
2023-05-10T07:07:18.802Z,100729.41
2023-05-10T07:09:45.744Z,100729.38
2023-05-10T07:12:15.337Z,100722.84
2023-05-10T07:14:42.647Z,100720.69
2023-05-10T07:17:09.484Z,100719.81
2023-05-10T07:19:36.152Z,100714.75
2023-05-10T07:22:02.812Z,100717.44
2023-05-10T07:24:29.399Z,100711.72
2023-05-10T07:26:56.117Z,100715.91
2023-05-10T07:29:24.145Z,100715.91
2023-05-10T07:31:51.099Z,100719.47
2023-05-10T07:34:17.910Z,100718.81
2023-05-10T07:36:44.714Z,100711.16
2023-05-10T07:39:12.715Z,100713.03
2023-05-10T07:41:42.821Z,100725.03
2023-05-10T07:44:09.646Z,100719.53
2023-05-10T07:46:37.856Z,100718.25
2023-05-10T07:49:04.659Z,100712.31
2023-05-10T07:51:31.349Z,100717.63
2023-05-10T07:53:57.995Z,100717.88
2023-05-10T07:56:26.740Z,100710.09
2023-05-10T07:58:53.569Z,100721.09
2023-05-10T08:01:20.585Z,100711.97
2023-05-10T08:03:49.061Z,100716.44
2023-05-10T08:06:16.321Z,100718.28
2023-05-10T08:08:42.990Z,100717.22
2023-05-10T08:11:09.635Z,100722.28
2023-05-10T08:13:36.371Z,100720.72
2023-05-10T08:16:03.107Z,100723.69
2023-05-10T08:18:29.807Z,100722.66
2023-05-10T08:20:57.890Z,100726.69
2023-05-10T08:23:24.617Z,100722.44
2023-05-10T08:25:51.473Z,100724.50
2023-05-10T08:28:18.128Z,100728.06
2023-05-10T08:30:44.862Z,100723.66
2023-05-10T08:33:11.652Z,100717.50
2023-05-10T08:35:38.400Z,100731.69
2023-05-10T08:38:06.406Z,100733.38
2023-05-10T08:40:33.100Z,100728.50
2023-05-10T08:43:05.714Z,100727.41
2023-05-10T08:45:34.325Z,100730.00
2023-05-10T08:48:02.884Z,100734.25
2023-05-10T08:50:31.044Z,100732.13
2023-05-10T08:53:01.391Z,100736.91
2023-05-10T08:55:29.574Z,100735.63
2023-05-10T08:57:56.409Z,100728.63
2023-05-10T09:00:23.436Z,100730.25
2023-05-10T09:02:50.989Z,100732.72
2023-05-10T09:05:18.003Z,100742.22
2023-05-10T09:07:45.037Z,100733.44
2023-05-10T09:10:14.172Z,100726.03
2023-05-10T09:12:42.435Z,100723.66
2023-05-10T09:15:10.817Z,100729.72
2023-05-10T09:17:39.476Z,100728.97
2023-05-10T09:20:07.450Z,100732.91
2023-05-10T09:22:34.556Z,100736.41
2023-05-10T09:25:08.312Z,100738.88
2023-05-10T09:27:35.135Z,100737.69
2023-05-10T09:30:03.543Z,100738.38
2023-05-10T09:32:41.526Z,100732.94
2023-05-10T09:35:10.059Z,100732.63
2023-05-10T09:37:36.758Z,100739.88
2023-05-10T09:40:06.522Z,100744.63
2023-05-10T09:42:33.236Z,100732.19
2023-05-10T09:45:03.998Z,100747.38
2023-05-10T09:47:33.190Z,100744.88
2023-05-10T09:49:59.863Z,100742.63
2023-05-10T09:52:26.466Z,100735.31
2023-05-10T09:54:54.890Z,100741.69
2023-05-10T09:57:22.334Z,100753.38
2023-05-10T09:59:49.302Z,100741.53
2023-05-10T10:02:17.859Z,100741.63
2023-05-10T10:04:44.595Z,100741.06
2023-05-10T10:07:11.362Z,100734.00
2023-05-10T10:09:38.134Z,100742.06
2023-05-10T10:12:05.348Z,100740.97
2023-05-10T10:14:32.007Z,100739.25
2023-05-10T10:17:08.000Z,100732.97
2023-05-10T10:19:37.215Z,100733.81
2023-05-10T10:22:04.429Z,100731.19
2023-05-10T10:24:31.217Z,100729.75
2023-05-10T10:27:07.968Z,100728.88
2023-05-10T10:29:39.707Z,100734.63
2023-05-10T10:32:20.597Z,100726.25
2023-05-10T10:34:49.062Z,100727.06
2023-05-10T10:37:15.841Z,100727.66
2023-05-10T10:39:42.431Z,100721.03
2023-05-10T10:42:09.164Z,100713.16
2023-05-10T10:44:37.894Z,100716.50
2023-05-10T10:47:24.857Z,100717.03
2023-05-10T10:50:03.679Z,100711.16
2023-05-10T10:52:33.232Z,100722.31
2023-05-10T10:55:02.380Z,100715.69
2023-05-10T10:57:32.060Z,100720.31
2023-05-10T11:00:24.449Z,100718.81
2023-05-10T11:02:52.913Z,100718.59
2023-05-10T11:05:39.113Z,100716.28
2023-05-10T11:08:11.448Z,100709.53
2023-05-10T11:10:38.743Z,100710.53
2023-05-10T11:13:06.962Z,100716.56
2023-05-10T11:15:34.898Z,100714.16
2023-05-10T11:18:17.846Z,100715.41
2023-05-10T11:20:51.648Z,100710.72
2023-05-10T11:23:18.474Z,100702.81
2023-05-10T11:25:45.718Z,100712.38
2023-05-10T11:28:13.238Z,100714.13
2023-05-10T11:30:41.287Z,100703.03
2023-05-10T11:33:09.280Z,100704.44
2023-05-10T11:35:41.023Z,100703.09
2023-05-10T11:38:10.598Z,100703.78
2023-05-10T11:40:38.383Z,100703.28
2023-05-10T11:43:05.978Z,100704.44
2023-05-10T11:45:33.504Z,100710.91
2023-05-10T11:48:00.708Z,100707.91
2023-05-10T11:50:27.984Z,100702.09
2023-05-10T11:52:55.314Z,100701.34
2023-05-10T11:55:23.491Z,100703.63
2023-05-10T11:57:53.399Z,100712.56
2023-05-10T12:00:20.540Z,100708.22
2023-05-10T12:02:47.617Z,100706.31
2023-05-10T12:05:14.694Z,100711.09
2023-05-10T12:07:41.308Z,100701.06
2023-05-10T12:10:10.059Z,100705.53
2023-05-10T12:12:40.163Z,100708.59
2023-05-10T12:15:12.040Z,100706.47
2023-05-10T12:17:41.265Z,100712.16
2023-05-10T12:20:17.292Z,100704.16
2023-05-10T12:22:50.375Z,100705.81
2023-05-10T12:25:17.379Z,100701.41
2023-05-10T12:27:52.501Z,100703.59
2023-05-10T12:30:23.442Z,100708.09
2023-05-10T12:32:50.492Z,100717.00
2023-05-10T12:35:17.661Z,100705.06
2023-05-10T12:37:44.695Z,100703.97
2023-05-10T12:40:12.360Z,100707.59
2023-05-10T12:42:40.577Z,100714.00
2023-05-10T12:45:09.920Z,100711.81
2023-05-10T12:47:36.713Z,100718.16
2023-05-10T12:50:04.531Z,100710.97
2023-05-10T12:52:31.482Z,100722.97
2023-05-10T12:54:58.338Z,100717.72
2023-05-10T12:57:25.199Z,100715.25
2023-05-10T12:59:51.929Z,100713.63
2023-05-10T13:02:20.204Z,100717.25
2023-05-10T13:04:48.224Z,100708.88
2023-05-10T13:07:16.252Z,100710.00
2023-05-10T13:09:42.901Z,100714.19
2023-05-10T13:12:10.219Z,100703.97
2023-05-10T13:14:37.028Z,100709.53
2023-05-10T13:17:03.881Z,100706.72
2023-05-10T13:19:31.909Z,100705.63
2023-05-10T13:21:58.597Z,100705.09
2023-05-10T13:24:25.268Z,100699.00
2023-05-10T13:26:51.856Z,100706.84
2023-05-10T13:29:18.595Z,100703.50
2023-05-10T13:31:45.349Z,100695.97
2023-05-10T13:34:12.013Z,100697.63
2023-05-10T13:36:40.211Z,100691.81
2023-05-10T13:39:07.010Z,100691.78
2023-05-10T13:41:33.696Z,100695.91
2023-05-10T13:44:00.413Z,100688.28
2023-05-10T13:46:27.143Z,100695.22
2023-05-10T13:48:53.893Z,100698.31
2023-05-10T13:51:20.653Z,100693.28
2023-05-10T13:53:48.989Z,100703.28
2023-05-10T13:56:15.669Z,100703.78
2023-05-10T13:58:42.313Z,100702.28
2023-05-10T14:01:08.970Z,100694.44
2023-05-10T14:03:36.667Z,100700.47
2023-05-10T14:06:03.456Z,100691.78
2023-05-10T14:08:30.070Z,100704.53
2023-05-10T14:10:58.085Z,100699.22
2023-05-10T14:13:24.967Z,100702.50
2023-05-10T14:15:51.842Z,100703.28
2023-05-10T14:18:18.563Z,100699.91
2023-05-10T14:20:45.229Z,100697.63
2023-05-10T14:23:12.347Z,100690.63
2023-05-10T14:25:39.105Z,100696.69
2023-05-10T14:28:07.322Z,100695.03
2023-05-10T14:30:34.400Z,100695.00
2023-05-10T14:33:01.116Z,100693.25
2023-05-10T14:35:28.074Z,100699.31
2023-05-10T14:37:54.965Z,100693.50
2023-05-10T14:40:21.577Z,100701.59
2023-05-10T14:42:48.198Z,100697.88
2023-05-10T14:45:16.462Z,100693.16
2023-05-10T14:47:43.311Z,100695.38
2023-05-10T14:50:11.386Z,100695.09
2023-05-10T14:52:39.951Z,100694.25
2023-05-10T14:55:07.920Z,100699.75
2023-05-10T14:57:34.510Z,100696.13
2023-05-10T15:00:01.286Z,100698.06
2023-05-10T15:02:29.980Z,100694.25
2023-05-10T15:04:57.121Z,100696.19
2023-05-10T15:07:24.282Z,100694.19
2023-05-10T15:09:51.219Z,100699.44
2023-05-10T15:12:17.922Z,100699.75
2023-05-10T15:14:44.726Z,100702.81
2023-05-10T15:17:11.463Z,100693.34
2023-05-10T15:19:39.487Z,100698.28
2023-05-10T15:22:06.451Z,100709.03
2023-05-10T15:24:33.077Z,100707.09
2023-05-10T15:26:59.869Z,100715.50
2023-05-10T15:29:26.479Z,100722.91
2023-05-10T15:31:53.382Z,100725.34
2023-05-10T15:34:20.201Z,100728.09
2023-05-10T15:36:48.213Z,100736.06
2023-05-10T15:39:14.863Z,100730.22
2023-05-10T15:41:41.669Z,100733.88
2023-05-10T15:44:08.237Z,100740.69
2023-05-10T15:46:34.997Z,100743.47
2023-05-10T15:49:01.630Z,100745.38
2023-05-10T15:51:28.387Z,100755.00
2023-05-10T15:54:06.644Z,100752.25
2023-05-10T15:56:34.066Z,100752.44
2023-05-10T15:59:00.751Z,100764.59
2023-05-10T16:01:27.791Z,100749.06
2023-05-10T16:03:54.464Z,100764.59
2023-05-10T16:06:21.303Z,100763.59
2023-05-10T16:08:48.098Z,100760.00
2023-05-10T16:11:16.123Z,100767.72
2023-05-10T16:13:42.691Z,100765.19
2023-05-10T16:16:09.480Z,100768.53
2023-05-10T16:18:36.707Z,100771.81
2023-05-10T16:21:03.807Z,100771.47
2023-05-10T16:23:30.721Z,100775.19
2023-05-10T16:25:57.370Z,100773.16
2023-05-10T16:28:25.504Z,100783.94
2023-05-10T16:30:52.285Z,100785.91
2023-05-10T16:33:18.943Z,100793.00
2023-05-10T16:35:45.607Z,100790.38
2023-05-10T16:38:12.185Z,100792.38
2023-05-10T16:40:38.997Z,100796.59
2023-05-10T16:43:05.600Z,100796.47
2023-05-10T16:45:33.643Z,100805.72
2023-05-10T16:48:00.593Z,100811.25
2023-05-10T16:50:27.327Z,100812.13
2023-05-10T16:52:54.028Z,100810.53
2023-05-10T16:55:21.049Z,100818.31
2023-05-10T16:57:47.676Z,100820.69
2023-05-10T17:00:15.612Z,100821.88
2023-05-10T17:02:43.737Z,100830.56
2023-05-10T17:05:10.660Z,100831.59
2023-05-10T17:07:37.327Z,100834.47
2023-05-10T17:10:04.370Z,100833.09
2023-05-10T17:12:31.100Z,100843.38
2023-05-10T17:14:57.640Z,100837.56
2023-05-10T17:17:24.369Z,100838.94
2023-05-10T17:19:52.471Z,100839.69
2023-05-10T17:22:19.657Z,100841.75
2023-05-10T17:24:46.605Z,100852.81
2023-05-10T17:27:13.837Z,100844.59
2023-05-10T17:29:40.543Z,100847.63
2023-05-10T17:32:07.299Z,100848.78
2023-05-10T17:34:33.897Z,100849.03
2023-05-10T17:37:02.210Z,100846.56
2023-05-10T17:39:28.923Z,100856.56
2023-05-10T17:41:55.631Z,100860.41
2023-05-10T17:44:22.412Z,100863.84
2023-05-10T17:46:49.095Z,100866.44
2023-05-10T17:49:15.804Z,100868.16
2023-05-10T17:51:42.450Z,100869.88
2023-05-10T17:54:10.519Z,100871.41
2023-05-10T17:56:37.153Z,100867.81
2023-05-10T17:59:05.286Z,100868.69
2023-05-10T18:01:31.966Z,100870.63
2023-05-10T18:03:58.640Z,100873.19
2023-05-10T18:06:25.314Z,100879.81
2023-05-10T18:08:52.123Z,100880.66
2023-05-10T18:11:20.227Z,100882.16
2023-05-10T18:13:47.385Z,100889.38
2023-05-10T18:16:14.093Z,100889.41
2023-05-10T18:18:40.795Z,100889.22
2023-05-10T18:21:07.500Z,100892.81
2023-05-10T18:23:34.173Z,100892.59
2023-05-10T18:26:01.682Z,100893.25
2023-05-10T18:28:29.750Z,100897.72
2023-05-10T18:30:56.474Z,100898.53
2023-05-10T18:33:23.136Z,100900.25
2023-05-10T18:35:49.915Z,100901.97
2023-05-10T18:38:16.750Z,100908.09
2023-05-10T18:40:43.344Z,100907.03
2023-05-10T18:43:10.114Z,100908.72
2023-05-10T18:45:38.260Z,100916.75
2023-05-10T18:48:05.320Z,100920.97
2023-05-10T18:50:31.991Z,100923.53
2023-05-10T18:52:58.612Z,100926.91
2023-05-10T18:55:25.196Z,100933.03
2023-05-10T18:57:51.856Z,100933.66
2023-05-10T19:00:18.436Z,100938.09
2023-05-10T19:02:46.551Z,100938.91
2023-05-10T19:05:14.415Z,100945.03
2023-05-10T19:07:41.859Z,100952.41
2023-05-10T19:10:09.238Z,100953.25
2023-05-10T19:12:35.874Z,100962.28
2023-05-10T19:15:02.574Z,100962.06
2023-05-10T19:17:31.354Z,100971.09
2023-05-10T19:19:59.498Z,100974.88
2023-05-10T19:22:43.557Z,100970.22
2023-05-10T19:25:13.138Z,100974.81
2023-05-10T19:27:39.824Z,100979.03
2023-05-10T19:30:08.263Z,100977.94
2023-05-10T19:32:35.074Z,100976.03
2023-05-10T19:35:03.129Z,100979.38
2023-05-10T19:37:29.698Z,100981.88
2023-05-10T19:39:56.433Z,100987.97
2023-05-10T19:42:23.146Z,100983.94
2023-05-10T19:44:49.831Z,100983.50
2023-05-10T19:47:16.578Z,100986.84
2023-05-10T19:49:43.257Z,100987.22
2023-05-10T19:52:11.354Z,100994.16
2023-05-10T19:54:37.991Z,100998.34
2023-05-10T19:57:04.621Z,100997.69
2023-05-10T19:59:31.261Z,101000.00
2023-05-10T20:01:57.905Z,101003.09
2023-05-10T20:04:24.627Z,100999.75
2023-05-10T20:06:51.276Z,100999.94
2023-05-10T20:09:19.234Z,101004.78
2023-05-10T20:11:45.898Z,101010.44
2023-05-10T20:14:12.603Z,101011.72
2023-05-10T20:16:39.349Z,101010.00
2023-05-10T20:19:06.245Z,101014.81
2023-05-10T20:21:32.933Z,101016.94
2023-05-10T20:23:59.619Z,101019.00
2023-05-10T20:26:27.700Z,101014.78
2023-05-10T20:28:54.269Z,101023.19
2023-05-10T20:31:20.995Z,101012.63
2023-05-10T20:33:47.787Z,101013.84
2023-05-10T20:36:14.565Z,101018.50
2023-05-10T20:38:41.141Z,101022.28
2023-05-10T20:41:13.942Z,101019.13
2023-05-10T20:43:41.965Z,101013.81
2023-05-10T20:46:08.782Z,101022.44
2023-05-10T20:48:35.408Z,101024.50
2023-05-10T20:51:02.095Z,101017.56
2023-05-10T20:53:28.932Z,101021.50
2023-05-10T20:55:55.609Z,101022.53
2023-05-10T20:58:22.244Z,101018.31
2023-05-10T21:00:50.326Z,101013.88
2023-05-10T21:03:16.948Z,101012.41
2023-05-10T21:05:43.598Z,101020.78
2023-05-10T21:08:10.255Z,101014.69
2023-05-10T21:10:36.833Z,101022.06
2023-05-10T21:13:03.492Z,101024.13
2023-05-10T21:15:30.176Z,101028.75
2023-05-10T21:17:58.605Z,101026.22
2023-05-10T21:20:25.370Z,101030.00
2023-05-10T21:22:52.020Z,101029.31
2023-05-10T21:25:18.803Z,101030.41
2023-05-10T21:27:45.682Z,101031.63
2023-05-10T21:30:12.643Z,101030.75
2023-05-10T21:32:39.379Z,101021.91
2023-05-10T21:35:08.934Z,101021.25
2023-05-10T21:37:35.700Z,101020.59
2023-05-10T21:40:03.020Z,101023.34
2023-05-10T21:42:30.336Z,101027.13
2023-05-10T21:44:57.014Z,101030.88
2023-05-10T21:47:23.655Z,101033.84
2023-05-10T21:49:50.290Z,101023.94
2023-05-10T21:52:18.288Z,101029.59
2023-05-10T21:54:44.902Z,101026.22
2023-05-10T21:57:11.539Z,101034.41
2023-05-10T21:59:38.267Z,101031.03
2023-05-10T22:02:04.955Z,101024.91
2023-05-10T22:04:31.539Z,101028.00
2023-05-10T22:06:58.152Z,101030.75
2023-05-10T22:09:26.178Z,101027.34
2023-05-10T22:11:52.814Z,101029.22
2023-05-10T22:14:19.522Z,101032.13
2023-05-10T22:16:46.372Z,101030.44
2023-05-10T22:19:13.058Z,101038.88
2023-05-10T22:21:39.641Z,101039.03
2023-05-10T22:24:06.590Z,101040.06
2023-05-10T22:26:34.631Z,101036.69
2023-05-10T22:29:01.223Z,101036.88
2023-05-10T22:31:27.847Z,101041.72
2023-05-10T22:33:54.560Z,101041.91
2023-05-10T22:36:21.213Z,101046.53
2023-05-10T22:38:47.802Z,101045.03
2023-05-10T22:41:14.458Z,101046.06
2023-05-10T22:43:42.465Z,101043.50
2023-05-10T22:46:09.079Z,101046.63
2023-05-10T22:48:35.989Z,101038.59
2023-05-10T22:51:02.583Z,101044.47
2023-05-10T22:53:29.237Z,101052.00
2023-05-10T22:55:56.056Z,101054.94
2023-05-10T22:58:22.792Z,101056.16
2023-05-10T23:00:50.945Z,101049.38
2023-05-10T23:03:18.198Z,101059.84
2023-05-10T23:05:44.827Z,101057.50
2023-05-10T23:08:11.624Z,101050.91
2023-05-10T23:10:38.340Z,101059.84
2023-05-10T23:13:04.998Z,101061.66
2023-05-10T23:15:31.603Z,101061.56
2023-05-10T23:17:59.898Z,101063.16
2023-05-10T23:20:26.549Z,101063.03
2023-05-10T23:22:53.261Z,101064.66
2023-05-10T23:25:19.879Z,101055.50
2023-05-10T23:27:46.574Z,101065.31
2023-05-10T23:30:13.492Z,101062.25
2023-05-10T23:32:40.189Z,101065.53
2023-05-10T23:35:09.431Z,101062.50
2023-05-10T23:37:36.854Z,101058.81
2023-05-10T23:40:03.828Z,101069.44
2023-05-10T23:42:32.060Z,101060.28
2023-05-10T23:44:58.685Z,101062.72
2023-05-10T23:47:25.303Z,101059.88
2023-05-10T23:49:51.912Z,101054.31
2023-05-10T23:52:19.902Z,101072.25
2023-05-10T23:54:46.563Z,101066.47
2023-05-10T23:57:13.276Z,101059.84
2023-05-10T23:59:39.954Z,101064.84
